Time;durP1;ratioP1;P1;durP2;ratioP2;P2;SDS_P1;SDS_P2;PMS_P1;PMS_P2;Temp;Humidity;BMP_temperature;BMP_pressure;BME280_temperature;BME280_humidity;BME280_pressure;Samples;Min_cycle;Max_cycle;Signal;HPM_P1;HPM_P2
2021/08/16 00:02:18;;;;;;;11.23;3.20;;;14.90;99.90;;;;;;5060203;28;20172;-70
2021/08/16 00:04:47;;;;;;;10.23;3.37;;;14.90;99.90;;;;;;5079542;28;20189;-71
2021/08/16 00:07:15;;;;;;;6.60;2.90;;;14.90;99.90;;;;;;5096505;28;20187;-70
2021/08/16 00:09:43;;;;;;;10.70;3.23;;;14.90;99.90;;;;;;5097931;28;20209;-71
2021/08/16 00:12:13;;;;;;;12.77;3.17;;;14.90;99.90;;;;;;5099592;28;20183;-71
2021/08/16 00:14:41;;;;;;;6.90;2.60;;;14.90;99.90;;;;;;5100214;28;20183;-70
2021/08/16 00:17:10;;;;;;;11.87;3.80;;;14.90;99.90;;;;;;5099619;28;20176;-71
2021/08/16 00:19:39;;;;;;;9.17;2.90;;;15.00;99.90;;;;;;5101560;28;20191;-72
2021/08/16 00:22:08;;;;;;;9.23;3.50;;;15.00;99.90;;;;;;5100583;28;20198;-71
2021/08/16 00:24:36;;;;;;;8.07;2.83;;;15.10;99.90;;;;;;5099272;28;20329;-69
2021/08/16 00:27:04;;;;;;;15.07;3.47;;;15.10;99.90;;;;;;5077392;28;20196;-70
2021/08/16 00:29:34;;;;;;;10.43;3.10;;;15.20;99.90;;;;;;5077478;28;20233;-71
2021/08/16 00:32:02;;;;;;;12.00;3.50;;;15.20;99.90;;;;;;5095604;28;20273;-71
2021/08/16 00:34:30;;;;;;;9.70;2.77;;;15.30;99.90;;;;;;5093214;28;20269;-71
2021/08/16 00:36:59;;;;;;;12.80;3.33;;;15.40;99.90;;;;;;5097637;28;20224;-71
2021/08/16 00:39:27;;;;;;;9.60;3.03;;;15.40;99.90;;;;;;5100478;28;20375;-70
2021/08/16 00:41:55;;;;;;;11.33;3.33;;;15.40;99.90;;;;;;5099982;28;20178;-71
2021/08/16 00:44:24;;;;;;;10.00;3.40;;;15.40;99.90;;;;;;5102966;28;20203;-71
2021/08/16 00:46:54;;;;;;;9.67;2.80;;;15.40;99.90;;;;;;5100763;28;20199;-71
2021/08/16 00:49:22;;;;;;;5.83;2.93;;;15.40;99.90;;;;;;5100759;28;20308;-70
2021/08/16 00:51:50;;;;;;;5.17;3.00;;;15.40;99.90;;;;;;5081244;28;20180;-71
2021/08/16 00:54:19;;;;;;;10.90;3.00;;;15.40;99.90;;;;;;5098028;28;20211;-71
2021/08/16 00:56:47;;;;;;;8.77;2.77;;;15.50;99.90;;;;;;5096350;28;20194;-71
2021/08/16 00:59:18;;;;;;;7.80;3.03;;;15.40;99.90;;;;;;5095111;28;20194;-71
2021/08/16 01:01:46;;;;;;;10.33;3.07;;;15.40;99.90;;;;;;5099065;28;20182;-71
2021/08/16 01:04:16;;;;;;;15.07;3.63;;;15.50;99.90;;;;;;5099345;28;20284;-71
2021/08/16 01:06:44;;;;;;;11.40;3.20;;;15.50;99.90;;;;;;5079834;28;20207;-71
2021/08/16 01:09:12;;;;;;;9.87;3.30;;;15.50;99.90;;;;;;5100941;28;20301;-71
2021/08/16 01:11:41;;;;;;;6.13;3.07;;;15.50;99.90;;;;;;5100659;28;20187;-71
2021/08/16 01:14:09;;;;;;;14.17;3.00;;;15.50;99.90;;;;;;5101364;28;20171;-71
2021/08/16 01:16:37;;;;;;;10.50;2.80;;;15.60;99.90;;;;;;5099530;28;20328;-71
2021/08/16 01:19:06;;;;;;;12.90;3.40;;;15.60;99.90;;;;;;5065541;28;20443;-70
2021/08/16 01:21:36;;;;;;;12.50;3.57;;;15.60;99.90;;;;;;5103158;28;20200;-70
2021/08/16 01:24:05;;;;;;;8.53;3.07;;;15.60;99.90;;;;;;5099819;28;20186;-71
2021/08/16 01:26:35;;;;;;;7.43;2.73;;;15.60;99.90;;;;;;5097835;28;20207;-71
2021/08/16 01:29:05;;;;;;;7.37;2.97;;;15.50;99.90;;;;;;5097244;28;20176;-71
2021/08/16 01:31:53;;;;;;;11.80;2.90;;;15.60;99.90;;;;;;5100494;28;20227;-71
2021/08/16 01:34:23;;;;;;;10.10;2.80;;;15.50;99.90;;;;;;5096432;28;20414;-71
2021/08/16 01:36:51;;;;;;;14.23;3.00;;;15.50;99.90;;;;;;5095463;28;20188;-72
2021/08/16 01:39:19;;;;;;;12.17;3.10;;;15.50;99.90;;;;;;5093290;28;20183;-72
2021/08/16 01:41:49;;;;;;;9.03;3.20;;;15.50;99.90;;;;;;5096696;28;20362;-71
2021/08/16 01:44:17;;;;;;;11.83;2.77;;;15.50;99.90;;;;;;5096704;28;20183;-71
2021/08/16 01:46:46;;;;;;;10.83;2.87;;;15.40;99.90;;;;;;5093327;28;20308;-71
2021/08/16 01:49:14;;;;;;;15.43;3.23;;;15.40;99.90;;;;;;5098789;28;20179;-71
2021/08/16 01:51:43;;;;;;;12.30;2.87;;;15.40;99.90;;;;;;5098951;28;20187;-70
2021/08/16 01:54:12;;;;;;;11.87;2.90;;;15.40;99.90;;;;;;5101742;28;20207;-71
2021/08/16 01:56:40;;;;;;;9.47;2.97;;;15.40;99.90;;;;;;5098852;28;21422;-70
2021/08/16 01:59:11;;;;;;;10.50;3.03;;;15.40;99.90;;;;;;5097946;28;20178;-71
2021/08/16 02:01:39;;;;;;;13.97;3.20;;;15.50;99.90;;;;;;5099031;28;20179;-71
2021/08/16 02:04:08;;;;;;;14.77;2.70;;;15.50;99.90;;;;;;5082844;28;20594;-71
2021/08/16 02:06:36;;;;;;;9.00;3.20;;;15.40;99.90;;;;;;5102325;28;20176;-71
2021/08/16 02:09:04;;;;;;;9.57;3.23;;;15.40;99.90;;;;;;5101411;28;20442;-71
2021/08/16 02:11:32;;;;;;;11.47;3.20;;;15.40;99.90;;;;;;5100139;28;20180;-71
2021/08/16 02:14:01;;;;;;;9.93;3.00;;;15.40;99.90;;;;;;5099700;28;20210;-70
2021/08/16 02:16:30;;;;;;;11.67;3.17;;;15.50;99.90;;;;;;5101078;28;20411;-71
2021/08/16 02:18:59;;;;;;;11.30;3.03;;;15.50;99.90;;;;;;5095973;28;20192;-71
2021/08/16 02:21:27;;;;;;;10.53;3.10;;;15.50;99.90;;;;;;5104159;28;20190;-70
2021/08/16 02:23:55;;;;;;;11.60;3.40;;;15.50;99.90;;;;;;5097292;28;20183;-71
2021/08/16 02:26:23;;;;;;;14.60;3.40;;;15.50;99.90;;;;;;5097251;28;20187;-72
2021/08/16 02:28:52;;;;;;;12.23;3.40;;;15.50;99.90;;;;;;5081522;28;20353;-71
2021/08/16 02:31:23;;;;;;;6.10;3.07;;;15.50;99.90;;;;;;5100020;28;20214;-72
2021/08/16 02:33:53;;;;;;;10.47;3.90;;;15.50;99.90;;;;;;5082375;28;20175;-71
2021/08/16 02:36:22;;;;;;;6.17;3.30;;;15.60;99.90;;;;;;5098128;28;20180;-71
2021/08/16 02:38:50;;;;;;;8.83;3.00;;;15.60;99.90;;;;;;5098554;28;20202;-70
2021/08/16 02:41:18;;;;;;;12.60;3.33;;;15.70;99.90;;;;;;5094355;28;20179;-71
2021/08/16 02:43:46;;;;;;;8.63;3.23;;;15.70;99.90;;;;;;5099041;28;20217;-71
2021/08/16 02:46:15;;;;;;;13.47;3.33;;;15.70;99.90;;;;;;5101116;28;20218;-71
2021/08/16 02:48:43;;;;;;;10.77;2.90;;;15.70;99.90;;;;;;5100928;28;20208;-69
2021/08/16 02:51:13;;;;;;;9.37;2.80;;;15.70;99.90;;;;;;5097297;28;20187;-71
2021/08/16 02:53:41;;;;;;;8.87;3.20;;;15.80;99.90;;;;;;5099754;28;20222;-70
2021/08/16 02:56:13;;;;;;;10.03;3.00;;;15.80;99.90;;;;;;5083534;28;20180;-71
2021/08/16 02:58:41;;;;;;;7.77;3.20;;;15.80;99.90;;;;;;5099409;28;20211;-71
2021/08/16 03:01:09;;;;;;;9.93;3.30;;;15.80;99.90;;;;;;5097406;28;20263;-71
2021/08/16 03:03:38;;;;;;;10.47;2.80;;;15.80;99.90;;;;;;5099687;28;20205;-71
2021/08/16 03:06:07;;;;;;;10.77;3.03;;;15.80;99.90;;;;;;5103206;28;20505;-70
2021/08/16 03:08:37;;;;;;;12.23;3.00;;;15.80;99.90;;;;;;5096560;28;20204;-72
2021/08/16 03:11:07;;;;;;;9.57;2.83;;;15.80;99.90;;;;;;5081824;28;20184;-71
2021/08/16 03:13:36;;;;;;;7.97;3.37;;;15.80;99.90;;;;;;5086887;28;20185;-71
2021/08/16 03:16:05;;;;;;;9.47;2.90;;;15.80;99.90;;;;;;5064272;28;20322;-70
2021/08/16 03:18:34;;;;;;;10.70;2.67;;;15.80;99.90;;;;;;5083593;28;20225;-71
2021/08/16 03:21:04;;;;;;;11.67;3.10;;;15.80;99.90;;;;;;5079759;28;20173;-70
2021/08/16 03:24:14;;;;;;;9.23;2.77;;;15.80;99.90;;;;;;5094932;28;20230;-71
2021/08/16 03:26:44;;;;;;;8.77;3.37;;;15.80;99.90;;;;;;5098529;28;20214;-70
2021/08/16 03:29:24;;;;;;;10.43;3.20;;;15.80;99.90;;;;;;5078689;28;20454;-72
2021/08/16 03:32:34;;;;;;;9.77;3.47;;;15.70;99.90;;;;;;5095797;28;20187;-71
2021/08/16 03:35:03;;;;;;;14.10;3.57;;;15.70;99.90;;;;;;5084853;28;20184;-72
2021/08/16 03:37:34;;;;;;;12.67;3.07;;;15.60;99.90;;;;;;5100461;28;20353;-71
2021/08/16 03:40:06;;;;;;;9.53;3.03;;;15.60;99.90;;;;;;5102166;28;20182;-71
2021/08/16 03:42:34;;;;;;;13.57;3.20;;;15.50;99.90;;;;;;5083805;28;20214;-71
2021/08/16 03:45:03;;;;;;;9.17;3.13;;;15.50;99.90;;;;;;5066431;28;20171;-71
2021/08/16 03:47:32;;;;;;;14.17;3.60;;;15.50;99.90;;;;;;5099078;28;20184;-71
2021/08/16 03:50:00;;;;;;;13.83;3.70;;;15.40;99.90;;;;;;5099357;28;20202;-70
2021/08/16 03:52:28;;;;;;;13.60;3.70;;;15.40;99.90;;;;;;5080713;28;20198;-70
2021/08/16 03:54:56;;;;;;;13.00;3.40;;;15.40;99.90;;;;;;5092145;28;20187;-71
2021/08/16 03:57:26;;;;;;;9.57;3.37;;;15.40;99.90;;;;;;5074310;28;20434;-71
2021/08/16 03:59:54;;;;;;;14.93;3.60;;;15.40;99.90;;;;;;5098542;28;20179;-70
2021/08/16 04:02:22;;;;;;;13.47;3.03;;;15.30;99.90;;;;;;5096282;28;20286;-71
2021/08/16 04:04:51;;;;;;;8.53;3.17;;;15.30;99.90;;;;;;5074583;28;20168;-71
2021/08/16 04:07:19;;;;;;;14.27;3.77;;;15.30;99.90;;;;;;5074848;28;20342;-71
2021/08/16 04:09:47;;;;;;;9.57;3.67;;;15.40;99.90;;;;;;5095552;28;20211;-71
2021/08/16 04:12:16;;;;;;;14.03;3.20;;;15.40;99.90;;;;;;5095775;28;20176;-72
2021/08/16 04:14:45;;;;;;;16.03;4.23;;;15.40;99.90;;;;;;5068164;28;20175;-71
2021/08/16 04:17:14;;;;;;;12.97;3.97;;;15.40;99.90;;;;;;5102130;28;20180;-71
2021/08/16 04:19:42;;;;;;;10.43;3.30;;;15.40;99.90;;;;;;5098986;28;20180;-71
2021/08/16 04:22:10;;;;;;;11.90;3.63;;;15.50;99.90;;;;;;5096922;28;20314;-71
2021/08/16 04:24:39;;;;;;;13.47;3.87;;;15.50;99.90;;;;;;5098357;28;20183;-71
2021/08/16 04:27:08;;;;;;;13.07;3.47;;;15.50;99.90;;;;;;5101033;28;20442;-71
2021/08/16 04:29:37;;;;;;;14.60;3.70;;;15.50;99.90;;;;;;5098916;28;20548;-71
2021/08/16 04:32:08;;;;;;;14.33;3.70;;;15.50;99.90;;;;;;5097545;28;20369;-71
2021/08/16 04:34:36;;;;;;;12.20;3.70;;;15.60;99.90;;;;;;5092048;28;20185;-71
2021/08/16 04:37:05;;;;;;;12.67;3.80;;;15.50;99.90;;;;;;5097682;28;20175;-70
2021/08/16 04:39:33;;;;;;;11.90;3.30;;;15.60;99.90;;;;;;5101464;28;20179;-71
2021/08/16 04:42:02;;;;;;;10.10;3.47;;;15.60;99.90;;;;;;5098833;28;20193;-71
2021/08/16 04:44:31;;;;;;;8.37;3.63;;;15.70;99.90;;;;;;5102130;28;20202;-71
2021/08/16 04:46:59;;;;;;;20.47;3.93;;;15.70;99.90;;;;;;5100598;28;20183;-72
2021/08/16 04:49:28;;;;;;;9.13;3.43;;;15.70;99.90;;;;;;5098682;28;20203;-71
2021/08/16 04:51:57;;;;;;;14.00;3.73;;;15.70;99.90;;;;;;5094014;28;20190;-70
2021/08/16 04:54:25;;;;;;;13.70;4.10;;;15.70;99.90;;;;;;5098390;28;20175;-71
2021/08/16 04:56:55;;;;;;;9.27;3.67;;;15.80;99.90;;;;;;5098596;28;20250;-71
2021/08/16 04:59:24;;;;;;;11.60;3.30;;;15.80;99.90;;;;;;5097930;28;20191;-71
2021/08/16 05:01:54;;;;;;;10.83;3.17;;;15.90;99.90;;;;;;5098237;28;20391;-71
2021/08/16 05:04:24;;;;;;;11.03;3.40;;;15.80;99.90;;;;;;5096624;28;20359;-71
2021/08/16 05:06:53;;;;;;;13.93;3.83;;;15.90;99.90;;;;;;5080952;28;20183;-71
2021/08/16 05:09:21;;;;;;;13.87;3.40;;;15.90;99.90;;;;;;5096559;28;20222;-71
2021/08/16 05:11:50;;;;;;;16.30;3.87;;;15.90;99.90;;;;;;5099465;28;20175;-71
2021/08/16 05:14:18;;;;;;;7.60;3.57;;;16.00;99.90;;;;;;5099201;28;20180;-71
2021/08/16 05:16:46;;;;;;;12.17;3.53;;;16.00;99.90;;;;;;5098109;28;20179;-71
2021/08/16 05:19:17;;;;;;;12.57;3.97;;;16.00;99.90;;;;;;5094559;28;20243;-71
2021/08/16 05:21:45;;;;;;;11.17;3.67;;;16.10;99.90;;;;;;5090379;28;20233;-71
2021/08/16 05:24:15;;;;;;;11.87;3.97;;;16.10;99.90;;;;;;5096130;28;20234;-71
2021/08/16 05:26:43;;;;;;;12.47;3.77;;;16.20;99.90;;;;;;5075942;28;20187;-72
2021/08/16 05:29:13;;;;;;;11.93;3.27;;;16.30;99.90;;;;;;5094917;28;20203;-71
2021/08/16 05:31:42;;;;;;;15.63;4.13;;;16.30;99.90;;;;;;5098383;28;20393;-71
2021/08/16 05:34:10;;;;;;;10.67;3.60;;;16.40;99.90;;;;;;5078622;28;20187;-71
2021/08/16 05:36:39;;;;;;;11.43;3.77;;;16.40;99.90;;;;;;5080623;28;20326;-71
2021/08/16 05:39:07;;;;;;;16.57;4.30;;;16.40;99.90;;;;;;5096326;28;20291;-71
2021/08/16 05:41:37;;;;;;;10.67;3.73;;;16.40;99.90;;;;;;5080757;28;20187;-71
2021/08/16 05:44:05;;;;;;;13.23;4.10;;;16.40;99.90;;;;;;5099412;28;20196;-71
2021/08/16 05:46:33;;;;;;;13.13;3.60;;;16.40;99.90;;;;;;5101610;28;20509;-71
2021/08/16 05:49:02;;;;;;;11.50;3.50;;;16.50;99.90;;;;;;5083297;28;20195;-71
2021/08/16 05:51:34;;;;;;;7.27;3.70;;;16.50;99.90;;;;;;5098447;28;20524;-71
2021/08/16 05:54:06;;;;;;;11.77;3.53;;;16.60;99.90;;;;;;5097241;28;20183;-69
2021/08/16 05:56:35;;;;;;;13.53;4.20;;;16.60;99.90;;;;;;5099495;28;20204;-71
2021/08/16 05:59:04;;;;;;;16.80;3.70;;;16.70;99.90;;;;;;5101965;28;20188;-71
2021/08/16 06:01:38;;;;;;;9.83;3.37;;;16.70;99.90;;;;;;5084840;28;20395;-71
2021/08/16 06:04:09;;;;;;;8.37;3.40;;;16.70;99.90;;;;;;5103146;28;20184;-71
2021/08/16 06:06:40;;;;;;;9.03;3.20;;;16.80;99.90;;;;;;5083849;28;20183;-72
2021/08/16 06:09:08;;;;;;;12.50;3.63;;;16.80;99.90;;;;;;5103343;28;20186;-70
2021/08/16 06:11:38;;;;;;;12.47;3.97;;;16.80;99.90;;;;;;5099553;28;20215;-71
2021/08/16 06:14:07;;;;;;;8.77;3.20;;;16.80;99.90;;;;;;5100306;28;20327;-72
2021/08/16 06:16:36;;;;;;;9.10;4.20;;;16.80;99.90;;;;;;5103935;28;20195;-71
2021/08/16 06:19:05;;;;;;;11.67;4.27;;;16.90;99.90;;;;;;5100859;28;20315;-71
2021/08/16 06:21:35;;;;;;;7.90;3.50;;;16.80;99.90;;;;;;5098695;28;20510;-70
2021/08/16 06:24:04;;;;;;;8.23;3.73;;;16.90;99.90;;;;;;5099331;28;20469;-71
2021/08/16 06:26:32;;;;;;;9.50;3.70;;;16.80;99.90;;;;;;5098351;28;20219;-70
2021/08/16 06:29:02;;;;;;;12.90;3.47;;;16.90;99.90;;;;;;5081307;28;20223;-70
2021/08/16 06:31:32;;;;;;;10.43;3.90;;;16.90;99.90;;;;;;5095397;28;20223;-71
2021/08/16 06:34:05;;;;;;;11.50;4.07;;;16.90;99.90;;;;;;5100798;28;20218;-71
2021/08/16 06:36:38;;;;;;;16.53;4.37;;;16.80;99.90;;;;;;5100085;28;20186;-72
2021/08/16 06:39:18;;;;;;;8.47;3.80;;;16.80;99.90;;;;;;5083252;28;20224;-71
2021/08/16 06:41:46;;;;;;;10.30;4.37;;;16.90;99.90;;;;;;5096904;28;20194;-71
2021/08/16 06:44:17;;;;;;;11.47;4.33;;;16.80;99.90;;;;;;5102061;28;20392;-71
2021/08/16 06:46:48;;;;;;;12.50;4.40;;;16.90;99.90;;;;;;5099737;28;20251;-71
2021/08/16 06:49:18;;;;;;;12.23;3.87;;;16.90;99.90;;;;;;5099245;28;20196;-71
2021/08/16 06:51:47;;;;;;;14.47;4.10;;;16.90;99.90;;;;;;5099289;28;20640;-71
2021/08/16 06:54:15;;;;;;;11.20;4.23;;;16.90;99.90;;;;;;5098139;28;20187;-70
2021/08/16 06:56:58;;;;;;;11.13;4.60;;;16.90;99.90;;;;;;5098111;28;20182;-71
2021/08/16 06:59:28;;;;;;;9.60;4.50;;;16.90;99.90;;;;;;5098936;28;20315;-71
2021/08/16 07:01:59;;;;;;;12.60;4.10;;;17.00;99.90;;;;;;5099688;28;20176;-71
2021/08/16 07:04:28;;;;;;;13.00;4.53;;;17.00;99.90;;;;;;5082928;28;20259;-72
2021/08/16 07:06:56;;;;;;;16.57;4.43;;;17.00;99.90;;;;;;5101173;28;20215;-73
2021/08/16 07:09:24;;;;;;;9.23;4.23;;;17.00;99.90;;;;;;5081550;28;20230;-72
2021/08/16 07:11:53;;;;;;;13.80;4.97;;;17.00;99.90;;;;;;5102657;28;20334;-72
2021/08/16 07:14:22;;;;;;;7.20;4.33;;;17.00;99.90;;;;;;5098891;28;20422;-72
2021/08/16 07:16:51;;;;;;;11.27;4.70;;;17.00;99.90;;;;;;5083704;28;20225;-73
2021/08/16 07:19:20;;;;;;;10.60;4.63;;;17.00;99.90;;;;;;5099235;28;20193;-72
2021/08/16 07:21:48;;;;;;;9.23;4.47;;;17.10;99.90;;;;;;5082963;28;20357;-70
2021/08/16 07:24:19;;;;;;;11.50;5.10;;;17.10;99.90;;;;;;5096576;28;20202;-72
2021/08/16 07:26:47;;;;;;;10.23;4.40;;;17.10;99.90;;;;;;5074187;28;20199;-74
2021/08/16 07:29:26;;;;;;;10.13;4.23;;;17.10;99.90;;;;;;5079260;28;20444;-73
2021/08/16 07:31:56;;;;;;;11.53;4.20;;;17.10;99.90;;;;;;5074317;28;20224;-73
2021/08/16 07:34:27;;;;;;;10.33;4.53;;;17.00;99.90;;;;;;5073921;28;20180;-71
2021/08/16 07:37:01;;;;;;;9.73;4.57;;;16.90;99.90;;;;;;5062325;28;20347;-72
2021/08/16 07:40:12;;;;;;;9.13;4.87;;;16.90;99.90;;;;;;5094175;28;20239;-73
2021/08/16 07:42:41;;;;;;;9.50;4.90;;;16.80;99.90;;;;;;5094635;28;20405;-72
2021/08/16 07:45:11;;;;;;;11.53;4.80;;;16.80;99.90;;;;;;5076169;28;20195;-74
2021/08/16 07:47:41;;;;;;;13.37;4.70;;;16.80;99.90;;;;;;5076657;28;20430;-71
2021/08/16 07:50:11;;;;;;;8.73;4.60;;;16.70;99.90;;;;;;5094035;28;21362;-73
2021/08/16 07:52:42;;;;;;;11.40;4.80;;;16.70;99.90;;;;;;5077432;28;20210;-73
2021/08/16 07:55:11;;;;;;;10.10;4.73;;;16.70;99.90;;;;;;5097420;28;20186;-73
2021/08/16 07:57:40;;;;;;;4.33;4.03;;;16.70;99.90;;;;;;5092651;28;20183;-73
2021/08/16 08:00:09;;;;;;;4.57;4.17;;;16.60;99.90;;;;;;5075394;28;20229;-73
2021/08/16 08:02:43;;;;;;;7.50;4.10;;;16.60;99.90;;;;;;5097431;28;20179;-75
2021/08/16 08:05:14;;;;;;;7.27;4.83;;;16.50;99.90;;;;;;5097540;28;20188;-75
2021/08/16 08:07:45;;;;;;;7.23;5.00;;;16.50;99.90;;;;;;5078483;28;20196;-74
2021/08/16 08:10:15;;;;;;;7.30;5.00;;;16.40;99.90;;;;;;5098886;28;20187;-73
2021/08/16 08:12:45;;;;;;;9.27;4.97;;;16.40;99.90;;;;;;5092646;28;20206;-73
2021/08/16 08:15:15;;;;;;;5.87;4.67;;;16.40;99.90;;;;;;5101697;28;20184;-72
2021/08/16 08:17:45;;;;;;;9.53;4.97;;;16.40;99.90;;;;;;5095191;28;20176;-72
2021/08/16 08:20:20;;;;;;;6.57;4.70;;;16.50;99.90;;;;;;5093512;28;20445;-74
2021/08/16 08:22:51;;;;;;;8.60;4.77;;;16.50;99.90;;;;;;5094391;28;20359;-73
2021/08/16 08:25:20;;;;;;;12.03;4.27;;;16.60;99.90;;;;;;5094443;28;20310;-72
2021/08/16 08:27:48;;;;;;;5.57;3.83;;;16.60;99.90;;;;;;5090477;28;20300;-73
2021/08/16 08:30:17;;;;;;;5.03;3.80;;;16.70;99.90;;;;;;5072334;28;20533;-72
2021/08/16 08:32:55;;;;;;;17.90;4.37;;;16.90;99.90;;;;;;5077448;28;20461;-70
2021/08/16 08:35:23;;;;;;;6.90;3.93;;;16.90;99.90;;;;;;5098168;28;20188;-72
2021/08/16 08:37:57;;;;;;;8.27;4.00;;;16.90;99.90;;;;;;5095764;28;20184;-72
2021/08/16 08:40:25;;;;;;;10.60;4.07;;;17.00;99.90;;;;;;5078690;28;20382;-71
2021/08/16 08:42:55;;;;;;;6.70;3.73;;;17.00;99.90;;;;;;5075729;28;20179;-72
2021/08/16 08:45:26;;;;;;;7.30;3.87;;;17.10;99.90;;;;;;5091084;28;20192;-72
2021/08/16 08:47:58;;;;;;;10.50;3.73;;;17.10;99.90;;;;;;5092212;28;20410;-72
2021/08/16 08:50:28;;;;;;;10.13;4.13;;;17.20;99.90;;;;;;5091370;28;20198;-71
2021/08/16 08:52:59;;;;;;;7.77;3.80;;;17.30;99.90;;;;;;5054433;28;20352;-71
2021/08/16 08:55:28;;;;;;;7.50;3.50;;;17.60;99.90;;;;;;5090997;28;20179;-73
2021/08/16 08:58:15;;;;;;;8.10;4.00;;;17.60;99.90;;;;;;5094778;28;20445;-72
2021/08/16 09:00:44;;;;;;;8.83;3.93;;;17.70;99.90;;;;;;5092258;28;20469;-70
2021/08/16 09:03:14;;;;;;;8.10;3.57;;;17.70;99.90;;;;;;5092949;28;20232;-69
2021/08/16 09:05:51;;;;;;;9.13;4.03;;;17.70;99.90;;;;;;5088609;28;20497;-71
2021/08/16 09:08:31;;;;;;;7.27;4.00;;;17.70;99.90;;;;;;5095928;28;20187;-71
2021/08/16 09:11:10;;;;;;;7.60;4.03;;;17.90;99.90;;;;;;5093467;28;20461;-72
2021/08/16 09:13:54;;;;;;;5.57;4.40;;;18.10;99.90;;;;;;5095406;28;20181;-73
2021/08/16 09:16:23;;;;;;;4.53;3.93;;;18.30;99.90;;;;;;5095616;28;20183;-71
2021/08/16 09:18:54;;;;;;;12.63;4.83;;;18.50;99.90;;;;;;5095851;28;20205;-71
2021/08/16 09:21:28;;;;;;;10.40;5.17;;;18.60;99.90;;;;;;5100293;28;20201;-73
2021/08/16 09:23:58;;;;;;;9.73;5.83;;;18.80;99.90;;;;;;5096766;28;20186;-71
2021/08/16 09:26:29;;;;;;;11.37;5.93;;;18.70;99.90;;;;;;5100922;28;20187;-72
2021/08/16 09:29:19;;;;;;;8.20;6.23;;;18.70;99.90;;;;;;5099037;28;20198;-72
2021/08/16 09:31:53;;;;;;;10.87;6.17;;;19.00;99.90;;;;;;5078205;28;20451;-72
2021/08/16 09:34:32;;;;;;;11.70;6.63;;;18.90;99.90;;;;;;5080377;28;20183;-71
2021/08/16 09:37:03;;;;;;;11.07;6.27;;;18.60;99.90;;;;;;5094345;28;20217;-72
2021/08/16 09:39:39;;;;;;;12.87;6.93;;;18.70;99.90;;;;;;5101832;28;20183;-72
2021/08/16 09:42:08;;;;;;;15.23;7.00;;;18.90;99.90;;;;;;5099329;28;20370;-71
2021/08/16 09:44:47;;;;;;;14.53;7.47;;;19.10;99.90;;;;;;5095336;28;20184;-72
2021/08/16 09:47:16;;;;;;;14.97;8.10;;;19.30;99.90;;;;;;5099168;28;20183;-71
2021/08/16 09:49:56;;;;;;;13.47;8.17;;;19.40;99.90;;;;;;5099846;28;20175;-72
2021/08/16 09:52:33;;;;;;;14.53;9.23;;;19.50;99.90;;;;;;5099645;28;20357;-72
2021/08/16 09:55:02;;;;;;;17.30;10.37;;;19.50;99.90;;;;;;5100006;28;20206;-73
2021/08/16 09:57:33;;;;;;;18.37;10.80;;;19.60;99.90;;;;;;5098048;28;20369;-71
2021/08/16 10:00:04;;;;;;;18.60;11.07;;;19.60;99.90;;;;;;5080439;28;20314;-71
2021/08/16 10:02:33;;;;;;;21.73;12.23;;;19.40;99.90;;;;;;5093764;28;20181;-72
2021/08/16 10:05:05;;;;;;;21.40;12.23;;;19.30;99.90;;;;;;5096463;28;20188;-73
2021/08/16 10:07:44;;;;;;;27.87;14.27;;;19.30;99.90;;;;;;5099926;28;20183;-71
2021/08/16 10:10:16;;;;;;;23.47;14.17;;;19.10;99.90;;;;;;5097277;28;20199;-71
2021/08/16 10:12:44;;;;;;;24.37;13.57;;;19.30;99.90;;;;;;5100479;28;20208;-72
2021/08/16 10:15:14;;;;;;;23.10;14.23;;;19.80;99.90;;;;;;5082967;28;20187;-72
2021/08/16 10:17:45;;;;;;;23.80;15.17;;;20.00;99.90;;;;;;5095263;28;20427;-72
2021/08/16 10:20:16;;;;;;;23.97;15.37;;;19.90;99.90;;;;;;5089363;28;20222;-72
2021/08/16 10:22:47;;;;;;;29.03;17.13;;;19.60;99.90;;;;;;5083127;28;20225;-71
2021/08/16 10:25:17;;;;;;;29.37;17.10;;;19.50;99.90;;;;;;5064161;28;20176;-72
2021/08/16 10:27:49;;;;;;;30.77;17.83;;;19.40;99.90;;;;;;5099168;28;20315;-72
2021/08/16 10:30:24;;;;;;;30.73;18.27;;;19.30;99.90;;;;;;5100276;28;20237;-72
2021/08/16 10:33:01;;;;;;;26.83;16.57;;;19.30;99.90;;;;;;5076795;28;20195;-72
2021/08/16 10:35:40;;;;;;;26.63;17.43;;;19.80;99.90;;;;;;5081817;28;20171;-71
2021/08/16 10:38:09;;;;;;;25.63;16.97;;;20.30;99.90;;;;;;5062484;28;20208;-72
2021/08/16 10:40:42;;;;;;;32.63;18.50;;;19.90;99.90;;;;;;5094558;28;20472;-70
2021/08/16 10:43:11;;;;;;;26.90;18.00;;;19.70;99.90;;;;;;5093347;28;20180;-72
2021/08/16 10:45:45;;;;;;;30.90;18.53;;;19.40;99.90;;;;;;5101195;28;20195;-71
2021/08/16 10:48:23;;;;;;;26.23;17.93;;;19.50;99.90;;;;;;5075892;28;20387;-72
2021/08/16 10:51:05;;;;;;;29.27;19.07;;;19.60;99.90;;;;;;5094481;28;20436;-71
2021/08/16 10:53:34;;;;;;;31.23;17.33;;;19.60;99.90;;;;;;5096229;28;20195;-72
2021/08/16 10:56:04;;;;;;;26.67;17.57;;;19.60;99.90;;;;;;5097239;28;20368;-72
2021/08/16 10:58:33;;;;;;;30.57;18.40;;;19.40;99.90;;;;;;5078887;28;20237;-72
2021/08/16 11:01:01;;;;;;;27.30;18.07;;;19.40;99.90;;;;;;5102170;28;20183;-73
2021/08/16 11:03:30;;;;;;;30.50;18.70;;;19.10;99.90;;;;;;5102647;28;20186;-71
2021/08/16 11:06:07;;;;;;;29.90;18.60;;;18.90;99.90;;;;;;5078658;28;20399;-72
2021/08/16 11:08:36;;;;;;;29.40;18.03;;;18.70;99.90;;;;;;5095706;28;20188;-73
2021/08/16 11:11:07;;;;;;;37.23;19.27;;;18.50;99.90;;;;;;5096654;28;20188;-71
2021/08/16 11:13:36;;;;;;;31.40;18.27;;;18.50;99.90;;;;;;5099356;28;20215;-73
2021/08/16 11:16:07;;;;;;;35.97;19.27;;;18.50;99.90;;;;;;5097535;28;20746;-73
2021/08/16 11:18:39;;;;;;;26.77;17.23;;;18.70;99.90;;;;;;5071710;28;20227;-72
2021/08/16 11:21:13;;;;;;;31.23;17.63;;;18.80;99.90;;;;;;5095229;28;20208;-72
2021/08/16 11:23:42;;;;;;;33.10;17.87;;;18.70;99.90;;;;;;5092988;28;20230;-71
2021/08/16 11:26:11;;;;;;;34.03;18.57;;;18.50;99.90;;;;;;5093066;28;20179;-75
2021/08/16 11:28:40;;;;;;;30.43;18.20;;;18.30;99.90;;;;;;5099620;28;20195;-72
2021/08/16 11:31:09;;;;;;;35.00;19.33;;;18.10;99.90;;;;;;5082043;28;20229;-71
2021/08/16 11:33:38;;;;;;;37.63;19.33;;;18.00;99.90;;;;;;5098524;28;20788;-72
2021/08/16 11:36:09;;;;;;;33.30;18.93;;;17.90;99.90;;;;;;5077222;28;20182;-72
2021/08/16 11:38:40;;;;;;;37.53;18.37;;;17.90;99.90;;;;;;5079184;28;20745;-73
2021/08/16 11:41:11;;;;;;;30.23;17.77;;;17.90;99.90;;;;;;5078243;28;20185;-73
2021/08/16 11:44:11;;;;;;;31.87;18.07;;;17.90;99.90;;;;;;5078714;28;20250;-72
2021/08/16 11:46:39;;;;;;;33.33;17.20;;;18.00;99.90;;;;;;5093697;28;20306;-73
2021/08/16 11:49:10;;;;;;;25.67;16.13;;;18.00;99.90;;;;;;5097343;28;20180;-72
2021/08/16 11:51:42;;;;;;;31.50;17.90;;;17.90;99.90;;;;;;5093219;28;20199;-70
2021/08/16 11:54:13;;;;;;;31.90;17.93;;;17.80;99.90;;;;;;5090317;28;20227;-74
2021/08/16 11:56:52;;;;;;;31.73;17.50;;;17.70;99.90;;;;;;5093452;28;20465;-73
2021/08/16 11:59:20;;;;;;;29.67;17.30;;;17.70;99.90;;;;;;5095281;28;20207;-68
2021/08/16 12:01:49;;;;;;;32.07;17.80;;;17.60;99.90;;;;;;5099150;28;20310;-72
2021/08/16 12:04:18;;;;;;;28.03;17.57;;;17.70;99.90;;;;;;5097464;28;20444;-72
2021/08/16 12:06:52;;;;;;;34.03;17.30;;;17.90;99.90;;;;;;5079186;28;20199;-71
2021/08/16 12:09:33;;;;;;;26.43;15.93;;;18.20;99.90;;;;;;5096023;28;20193;-69
2021/08/16 12:12:03;;;;;;;28.30;16.17;;;18.40;99.90;;;;;;5096578;28;20179;-73
2021/08/16 12:14:32;;;;;;;29.07;16.00;;;18.40;99.90;;;;;;5081151;28;20395;-72
2021/08/16 12:17:01;;;;;;;21.47;14.67;;;18.30;99.90;;;;;;5093486;28;20180;-71
2021/08/16 12:19:30;;;;;;;24.83;15.17;;;18.10;99.90;;;;;;5094207;28;20360;-72
2021/08/16 12:22:06;;;;;;;25.30;15.07;;;18.20;99.90;;;;;;5103488;28;20205;-72
2021/08/16 12:24:39;;;;;;;30.63;15.93;;;18.20;99.90;;;;;;5100731;28;20361;-72
2021/08/16 12:27:09;;;;;;;26.00;15.50;;;18.30;99.90;;;;;;5081399;28;20194;-73
2021/08/16 12:29:42;;;;;;;28.93;15.53;;;18.50;99.90;;;;;;5081514;28;20175;-72
2021/08/16 12:32:16;;;;;;;27.70;13.60;;;18.60;99.90;;;;;;5052084;28;20220;-73
2021/08/16 12:34:45;;;;;;;28.97;14.27;;;18.70;99.90;;;;;;5073851;28;20235;-71
2021/08/16 12:37:22;;;;;;;23.80;12.93;;;18.80;99.90;;;;;;5077353;28;20290;-70
2021/08/16 12:39:52;;;;;;;22.03;13.73;;;18.70;99.90;;;;;;5079689;28;20222;-73
2021/08/16 12:42:28;;;;;;;24.43;14.33;;;18.50;99.90;;;;;;5085662;28;20180;-72
2021/08/16 12:44:57;;;;;;;22.77;13.33;;;18.40;99.90;;;;;;5090424;28;20251;-71
2021/08/16 12:47:28;;;;;;;25.03;13.77;;;18.30;99.90;;;;;;5074762;28;20372;-72
2021/08/16 12:49:56;;;;;;;25.10;14.00;;;18.10;99.90;;;;;;5070047;28;20281;-73
2021/08/16 12:52:26;;;;;;;25.40;14.93;;;17.90;99.90;;;;;;5071829;28;20198;-72
2021/08/16 12:54:58;;;;;;;22.57;14.13;;;17.80;99.90;;;;;;5055971;28;20206;-73
2021/08/16 12:57:27;;;;;;;26.33;14.77;;;17.80;99.90;;;;;;5055037;28;20184;-71